FHM7173 EDDB-EDDH
Flight info
| Callsign | FHM7173 |
|---|---|
| Flight time | 0h 33m |
| Altitude | 24000 |
| Route | SUKIP3Q/06R SUKIP M748 RARUP RARUP6A |
| Aircraft | A320/M-SDE3FGHIRWY/LB1 |
Departure
| Time | 2026-05-06 19:50 |
|---|---|
| Airport | Berlin Brandenburg Airport (EDDB) |
Arrival
| Time | 2026-05-06 20:23 |
|---|---|
| Airport | Hamburg Helmut Schmidt Airport (EDDH) |
| Time | Latitude | Longitude | Altitude | Speed | Heading |
|---|---|---|---|---|---|
| 2026-05-06 19:07 | 52.36000 | 13.50815 | 166 ft | 0 kts | 338° |
| 2026-05-06 19:34 | 52.36000 | 13.50814 | 166 ft | 0 kts | 339° |
| 2026-05-06 19:35 | 52.35997 | 13.50816 | 166 ft | 2 kts | 339° |
| 2026-05-06 19:35 | 52.35983 | 13.50825 | 166 ft | 2 kts | 339° |
| 2026-05-06 19:36 | 52.35969 | 13.50833 | 166 ft | 2 kts | 339° |
| 2026-05-06 19:36 | 52.35958 | 13.50840 | 166 ft | 0 kts | 339° |
| 2026-05-06 19:36 | 52.35947 | 13.50849 | 166 ft | 2 kts | 316° |
| 2026-05-06 19:36 | 52.35938 | 13.50869 | 166 ft | 2 kts | 290° |
| 2026-05-06 19:37 | 52.35935 | 13.50893 | 166 ft | 2 kts | 265° |
| 2026-05-06 19:37 | 52.35936 | 13.50907 | 166 ft | 1 kts | 249° |
| 2026-05-06 19:37 | 52.35939 | 13.50917 | 166 ft | 0 kts | 248° |
| 2026-05-06 19:42 | 52.35935 | 13.50901 | 166 ft | 5 kts | 248° |
| 2026-05-06 19:42 | 52.35919 | 13.50830 | 166 ft | 7 kts | 250° |
| 2026-05-06 19:42 | 52.35896 | 13.50732 | 166 ft | 11 kts | 248° |
| 2026-05-06 19:42 | 52.35848 | 13.50634 | 166 ft | 12 kts | 191° |
| 2026-05-06 19:43 | 52.35768 | 13.50604 | 166 ft | 12 kts | 236° |
| 2026-05-06 19:43 | 52.35735 | 13.50454 | 166 ft | 16 kts | 248° |
| 2026-05-06 19:43 | 52.35692 | 13.50276 | 166 ft | 17 kts | 248° |
| 2026-05-06 19:43 | 52.35648 | 13.50092 | 166 ft | 17 kts | 249° |
| 2026-05-06 19:44 | 52.35603 | 13.49903 | 166 ft | 18 kts | 248° |
| 2026-05-06 19:44 | 52.35556 | 13.49703 | 166 ft | 19 kts | 249° |
| 2026-05-06 19:44 | 52.35506 | 13.49496 | 166 ft | 19 kts | 248° |
| 2026-05-06 19:44 | 52.35458 | 13.49290 | 166 ft | 19 kts | 248° |
| 2026-05-06 19:45 | 52.35408 | 13.49086 | 166 ft | 19 kts | 249° |
| 2026-05-06 19:45 | 52.35366 | 13.48902 | 166 ft | 12 kts | 249° |
| 2026-05-06 19:45 | 52.35331 | 13.48761 | 166 ft | 15 kts | 249° |
| 2026-05-06 19:45 | 52.35287 | 13.48576 | 166 ft | 17 kts | 246° |
| 2026-05-06 19:46 | 52.35188 | 13.48480 | 166 ft | 17 kts | 208° |
| 2026-05-06 19:46 | 52.35133 | 13.48323 | 166 ft | 16 kts | 250° |
| 2026-05-06 19:46 | 52.35089 | 13.48148 | 166 ft | 14 kts | 244° |
| 2026-05-06 19:46 | 52.35051 | 13.47991 | 166 ft | 15 kts | 249° |
| 2026-05-06 19:47 | 52.35013 | 13.47825 | 166 ft | 15 kts | 249° |
| 2026-05-06 19:47 | 52.34972 | 13.47654 | 166 ft | 16 kts | 248° |
| 2026-05-06 19:47 | 52.34930 | 13.47477 | 166 ft | 17 kts | 248° |
| 2026-05-06 19:47 | 52.34872 | 13.47232 | 166 ft | 24 kts | 249° |
| 2026-05-06 19:48 | 52.34812 | 13.46978 | 166 ft | 23 kts | 248° |
| 2026-05-06 19:48 | 52.34746 | 13.46774 | 166 ft | 17 kts | 202° |
| 2026-05-06 19:48 | 52.34632 | 13.46825 | 166 ft | 17 kts | 160° |
| 2026-05-06 19:48 | 52.34574 | 13.46968 | 166 ft | 16 kts | 77° |
| 2026-05-06 19:49 | 52.34617 | 13.47152 | 166 ft | 21 kts | 68° |
| 2026-05-06 19:49 | 52.34738 | 13.47667 | 166 ft | 82 kts | 68° |
| 2026-05-06 19:49 | 52.35025 | 13.48864 | 166 ft | 141 kts | 68° |
| 2026-05-06 19:49 | 52.35428 | 13.50551 | 360 ft | 171 kts | 68° |
| 2026-05-06 19:50 | 52.35833 | 13.52421 | 975 ft | 177 kts | 72° |
| 2026-05-06 19:50 | 52.35788 | 13.54346 | 1747 ft | 178 kts | 109° |
| 2026-05-06 19:50 | 52.34917 | 13.55745 | 2389 ft | 186 kts | 150° |
| 2026-05-06 19:50 | 52.33715 | 13.56466 | 3061 ft | 185 kts | 166° |
| 2026-05-06 19:51 | 52.32453 | 13.56322 | 3558 ft | 192 kts | 203° |
| 2026-05-06 19:51 | 52.31410 | 13.54878 | 3911 ft | 206 kts | 239° |
| 2026-05-06 19:51 | 52.31109 | 13.52600 | 4233 ft | 216 kts | 281° |
| 2026-05-06 19:51 | 52.31724 | 13.50312 | 4576 ft | 231 kts | 303° |
| 2026-05-06 19:52 | 52.32662 | 13.48040 | 4964 ft | 250 kts | 306° |
| 2026-05-06 19:52 | 52.33683 | 13.45617 | 5506 ft | 264 kts | 304° |
| 2026-05-06 19:52 | 52.34707 | 13.43100 | 6324 ft | 267 kts | 303° |
| 2026-05-06 19:52 | 52.35707 | 13.40569 | 7183 ft | 268 kts | 302° |
| 2026-05-06 19:53 | 52.36695 | 13.38016 | 7998 ft | 271 kts | 301° |
| 2026-05-06 19:53 | 52.37694 | 13.35397 | 8817 ft | 274 kts | 300° |
| 2026-05-06 19:53 | 52.38689 | 13.32766 | 9625 ft | 277 kts | 299° |
| 2026-05-06 19:53 | 52.39709 | 13.30054 | 10358 ft | 282 kts | 299° |
| 2026-05-06 19:54 | 52.40741 | 13.27290 | 10779 ft | 299 kts | 299° |
| 2026-05-06 19:54 | 52.41858 | 13.24287 | 11116 ft | 316 kts | 299° |
| 2026-05-06 19:54 | 52.43039 | 13.21110 | 11442 ft | 334 kts | 299° |
| 2026-05-06 19:54 | 52.44265 | 13.17813 | 11740 ft | 350 kts | 299° |
| 2026-05-06 19:55 | 52.45546 | 13.14366 | 12149 ft | 361 kts | 299° |
| 2026-05-06 19:55 | 52.46853 | 13.10846 | 12766 ft | 365 kts | 299° |
| 2026-05-06 19:55 | 52.48179 | 13.07274 | 13404 ft | 368 kts | 299° |
| 2026-05-06 19:55 | 52.49498 | 13.03710 | 13984 ft | 372 kts | 298° |
| 2026-05-06 19:56 | 52.50853 | 13.00042 | 14584 ft | 375 kts | 298° |
| 2026-05-06 19:56 | 52.52196 | 12.96399 | 15161 ft | 378 kts | 298° |
| 2026-05-06 19:56 | 52.53544 | 12.92738 | 15721 ft | 381 kts | 298° |
| 2026-05-06 19:56 | 52.54917 | 12.89004 | 16258 ft | 384 kts | 298° |
| 2026-05-06 19:57 | 52.56293 | 12.85259 | 16810 ft | 386 kts | 298° |
| 2026-05-06 19:57 | 52.57684 | 12.81466 | 17343 ft | 388 kts | 298° |
| 2026-05-06 19:57 | 52.59072 | 12.77676 | 17855 ft | 391 kts | 298° |
| 2026-05-06 19:57 | 52.60486 | 12.73807 | 18339 ft | 393 kts | 298° |
| 2026-05-06 19:58 | 52.61880 | 12.69986 | 18824 ft | 396 kts | 298° |
| 2026-05-06 19:58 | 52.63304 | 12.66078 | 19296 ft | 398 kts | 298° |
| 2026-05-06 19:58 | 52.64717 | 12.62191 | 19757 ft | 401 kts | 298° |
| 2026-05-06 19:58 | 52.66145 | 12.58261 | 20215 ft | 403 kts | 298° |
| 2026-05-06 19:59 | 52.67588 | 12.54281 | 20670 ft | 405 kts | 298° |
| 2026-05-06 19:59 | 52.69035 | 12.50285 | 21101 ft | 407 kts | 297° |
| 2026-05-06 19:59 | 52.70471 | 12.46311 | 21523 ft | 410 kts | 297° |
| 2026-05-06 19:59 | 52.71928 | 12.42274 | 21939 ft | 412 kts | 297° |
| 2026-05-06 20:00 | 52.73395 | 12.38204 | 22351 ft | 414 kts | 297° |
| 2026-05-06 20:00 | 52.74867 | 12.34111 | 22735 ft | 416 kts | 297° |
| 2026-05-06 20:00 | 52.76336 | 12.30018 | 23134 ft | 418 kts | 297° |
| 2026-05-06 20:00 | 52.77821 | 12.25880 | 23540 ft | 419 kts | 297° |
| 2026-05-06 20:01 | 52.79291 | 12.21769 | 23842 ft | 421 kts | 297° |
| 2026-05-06 20:01 | 52.80787 | 12.17582 | 23866 ft | 421 kts | 297° |
| 2026-05-06 20:01 | 52.82258 | 12.13459 | 23875 ft | 421 kts | 297° |
| 2026-05-06 20:01 | 52.83747 | 12.09280 | 23874 ft | 421 kts | 297° |
| 2026-05-06 20:02 | 52.85213 | 12.05154 | 23883 ft | 421 kts | 297° |
| 2026-05-06 20:02 | 52.86704 | 12.00956 | 23869 ft | 421 kts | 297° |
| 2026-05-06 20:02 | 52.88171 | 11.96818 | 23859 ft | 422 kts | 297° |
| 2026-05-06 20:02 | 52.89658 | 11.92616 | 23869 ft | 422 kts | 297° |
| 2026-05-06 20:03 | 52.91126 | 11.88467 | 23863 ft | 422 kts | 297° |
| 2026-05-06 20:03 | 52.92616 | 11.84237 | 23870 ft | 423 kts | 298° |
| 2026-05-06 20:03 | 52.94086 | 11.80063 | 23862 ft | 423 kts | 297° |
| 2026-05-06 20:03 | 52.95568 | 11.75849 | 23866 ft | 423 kts | 298° |
| 2026-05-06 20:04 | 52.97049 | 11.71627 | 23868 ft | 423 kts | 298° |
| 2026-05-06 20:04 | 52.98514 | 11.67447 | 23868 ft | 423 kts | 298° |
| 2026-05-06 20:04 | 52.99990 | 11.63222 | 23865 ft | 424 kts | 298° |
| 2026-05-06 20:04 | 53.01458 | 11.59011 | 23638 ft | 423 kts | 298° |
| 2026-05-06 20:05 | 53.02909 | 11.54779 | 23369 ft | 420 kts | 295° |
| 2026-05-06 20:05 | 53.04032 | 11.50338 | 23113 ft | 416 kts | 289° |
| 2026-05-06 20:05 | 53.04988 | 11.45788 | 22845 ft | 415 kts | 287° |
| 2026-05-06 20:05 | 53.05908 | 11.41301 | 22585 ft | 414 kts | 288° |
| 2026-05-06 20:06 | 53.06847 | 11.36775 | 22319 ft | 413 kts | 288° |
| 2026-05-06 20:06 | 53.07796 | 11.32273 | 22059 ft | 413 kts | 288° |
| 2026-05-06 20:06 | 53.08746 | 11.27815 | 21800 ft | 412 kts | 288° |
| 2026-05-06 20:06 | 53.09718 | 11.23284 | 21515 ft | 411 kts | 288° |
| 2026-05-06 20:07 | 53.10673 | 11.18843 | 21109 ft | 409 kts | 288° |
| 2026-05-06 20:07 | 53.11632 | 11.14394 | 20510 ft | 406 kts | 288° |
| 2026-05-06 20:07 | 53.12566 | 11.10050 | 19907 ft | 403 kts | 288° |
| 2026-05-06 20:07 | 53.13508 | 11.05662 | 19327 ft | 399 kts | 288° |
| 2026-05-06 20:08 | 53.14438 | 11.01326 | 18763 ft | 395 kts | 288° |
| 2026-05-06 20:08 | 53.15350 | 10.97062 | 18194 ft | 393 kts | 288° |
| 2026-05-06 20:08 | 53.16258 | 10.92807 | 17633 ft | 390 kts | 288° |
| 2026-05-06 20:08 | 53.17153 | 10.88605 | 17107 ft | 386 kts | 288° |
| 2026-05-06 20:09 | 53.18050 | 10.84393 | 16579 ft | 383 kts | 288° |
| 2026-05-06 20:09 | 53.18933 | 10.80234 | 16040 ft | 381 kts | 288° |
| 2026-05-06 20:09 | 53.19808 | 10.76107 | 15503 ft | 378 kts | 288° |
| 2026-05-06 20:09 | 53.20680 | 10.71980 | 14956 ft | 376 kts | 288° |
| 2026-05-06 20:10 | 53.21538 | 10.67910 | 14408 ft | 374 kts | 289° |
| 2026-05-06 20:10 | 53.22388 | 10.63871 | 13861 ft | 372 kts | 289° |
| 2026-05-06 20:10 | 53.23243 | 10.59790 | 13300 ft | 370 kts | 289° |
| 2026-05-06 20:10 | 53.24082 | 10.55792 | 12779 ft | 366 kts | 289° |
| 2026-05-06 20:11 | 53.24915 | 10.51799 | 11983 ft | 370 kts | 290° |
| 2026-05-06 20:11 | 53.25770 | 10.47695 | 10921 ft | 379 kts | 290° |
| 2026-05-06 20:11 | 53.26635 | 10.43542 | 9912 ft | 385 kts | 290° |
| 2026-05-06 20:11 | 53.27506 | 10.39360 | 9146 ft | 383 kts | 291° |
| 2026-05-06 20:12 | 53.28367 | 10.35220 | 8389 ft | 381 kts | 291° |
| 2026-05-06 20:12 | 53.29238 | 10.31019 | 7621 ft | 379 kts | 290° |
| 2026-05-06 20:12 | 53.30093 | 10.26888 | 6861 ft | 378 kts | 290° |
| 2026-05-06 20:12 | 53.30942 | 10.22774 | 6118 ft | 376 kts | 290° |
| 2026-05-06 20:13 | 53.31785 | 10.18684 | 5441 ft | 372 kts | 291° |
| 2026-05-06 20:13 | 53.32608 | 10.14679 | 5048 ft | 360 kts | 291° |
| 2026-05-06 20:13 | 53.33395 | 10.10835 | 4975 ft | 340 kts | 291° |
| 2026-05-06 20:13 | 53.34142 | 10.07177 | 4969 ft | 319 kts | 291° |
| 2026-05-06 20:14 | 53.34836 | 10.03778 | 4967 ft | 301 kts | 291° |
| 2026-05-06 20:14 | 53.35489 | 10.00575 | 4970 ft | 284 kts | 291° |
| 2026-05-06 20:14 | 53.36111 | 9.97531 | 4977 ft | 275 kts | 291° |
| 2026-05-06 20:14 | 53.36735 | 9.94480 | 4900 ft | 275 kts | 291° |
| 2026-05-06 20:15 | 53.37341 | 9.91506 | 4765 ft | 274 kts | 291° |
| 2026-05-06 20:15 | 53.37962 | 9.88455 | 4638 ft | 274 kts | 291° |
| 2026-05-06 20:15 | 53.38573 | 9.85443 | 4506 ft | 273 kts | 291° |
| 2026-05-06 20:15 | 53.39189 | 9.82458 | 4377 ft | 272 kts | 295° |
| 2026-05-06 20:16 | 53.40210 | 9.79856 | 4248 ft | 265 kts | 318° |
| 2026-05-06 20:16 | 53.41556 | 9.77780 | 4116 ft | 263 kts | 323° |
| 2026-05-06 20:16 | 53.42945 | 9.75821 | 3983 ft | 262 kts | 324° |
| 2026-05-06 20:16 | 53.44317 | 9.73911 | 3832 ft | 253 kts | 324° |
| 2026-05-06 20:17 | 53.45661 | 9.72117 | 3697 ft | 241 kts | 333° |
| 2026-05-06 20:17 | 53.47178 | 9.71314 | 3557 ft | 223 kts | 4° |
| 2026-05-06 20:17 | 53.48643 | 9.71798 | 3428 ft | 210 kts | 21° |
| 2026-05-06 20:17 | 53.49901 | 9.72916 | 3292 ft | 200 kts | 39° |
| 2026-05-06 20:18 | 53.50906 | 9.74465 | 3161 ft | 192 kts | 46° |
| 2026-05-06 20:18 | 53.51803 | 9.76083 | 3027 ft | 184 kts | 49° |
| 2026-05-06 20:18 | 53.52597 | 9.77619 | 2985 ft | 169 kts | 50° |
| 2026-05-06 20:18 | 53.53348 | 9.79125 | 2737 ft | 165 kts | 51° |
| 2026-05-06 20:19 | 53.54061 | 9.80576 | 2498 ft | 160 kts | 51° |
| 2026-05-06 20:19 | 53.54753 | 9.81990 | 2261 ft | 155 kts | 51° |
| 2026-05-06 20:19 | 53.55425 | 9.83361 | 2066 ft | 150 kts | 51° |
| 2026-05-06 20:19 | 53.56079 | 9.84695 | 1866 ft | 145 kts | 51° |
| 2026-05-06 20:20 | 53.56698 | 9.85957 | 1656 ft | 134 kts | 51° |
| 2026-05-06 20:20 | 53.57290 | 9.87161 | 1482 ft | 133 kts | 51° |
| 2026-05-06 20:20 | 53.57880 | 9.88361 | 1314 ft | 133 kts | 51° |
| 2026-05-06 20:20 | 53.58470 | 9.89560 | 1146 ft | 133 kts | 51° |
| 2026-05-06 20:21 | 53.59065 | 9.90752 | 994 ft | 133 kts | 51° |
| 2026-05-06 20:21 | 53.59649 | 9.91951 | 848 ft | 132 kts | 50° |
| 2026-05-06 20:21 | 53.60242 | 9.93146 | 643 ft | 133 kts | 50° |
| 2026-05-06 20:21 | 53.60820 | 9.94340 | 416 ft | 132 kts | 50° |
| 2026-05-06 20:22 | 53.61405 | 9.95522 | 237 ft | 130 kts | 51° |
| 2026-05-06 20:22 | 53.61983 | 9.96698 | 82 ft | 129 kts | 49° |
| 2026-05-06 20:22 | 53.62528 | 9.97795 | 28 ft | 110 kts | 51° |
| 2026-05-06 20:22 | 53.62910 | 9.98565 | 38 ft | 60 kts | 51° |
| 2026-05-06 20:23 | 53.63088 | 9.98939 | 36 ft | 28 kts | 53° |
| 2026-05-06 20:23 | 53.63211 | 9.99185 | 34 ft | 24 kts | 49° |
| 2026-05-06 20:23 | 53.63287 | 9.99404 | 31 ft | 17 kts | 80° |
| 2026-05-06 20:23 | 53.63284 | 9.99567 | 31 ft | 10 kts | 101° |
| 2026-05-06 20:24 | 53.63278 | 9.99628 | 31 ft | 0 kts | 99° |
| 2026-05-06 20:24 | 53.63277 | 9.99634 | 31 ft | 0 kts | 99° |
| 2026-05-06 20:24 | 53.63277 | 9.99639 | 31 ft | 0 kts | 99° |
| 2026-05-06 20:24 | 53.63277 | 9.99640 | 31 ft | 0 kts | 99° |
| 2026-05-06 20:25 | 53.63276 | 9.99648 | 31 ft | 0 kts | 99° |
| 2026-05-06 20:25 | 53.63274 | 9.99666 | 31 ft | 2 kts | 99° |
| 2026-05-06 20:25 | 53.63270 | 9.99709 | 30 ft | 5 kts | 99° |
| 2026-05-06 20:25 | 53.63283 | 9.99775 | 30 ft | 6 kts | 52° |
| 2026-05-06 20:26 | 53.63315 | 9.99838 | 31 ft | 8 kts | 49° |
| 2026-05-06 20:26 | 53.63359 | 9.99925 | 32 ft | 10 kts | 50° |
| 2026-05-06 20:26 | 53.63403 | 10.00014 | 35 ft | 9 kts | 50° |
| 2026-05-06 20:26 | 53.63427 | 10.00109 | 39 ft | 9 kts | 100° |
| 2026-05-06 20:27 | 53.63374 | 10.00160 | 38 ft | 10 kts | 177° |
| 2026-05-06 20:27 | 53.63279 | 10.00169 | 37 ft | 13 kts | 175° |
| 2026-05-06 20:27 | 53.63178 | 10.00185 | 35 ft | 15 kts | 174° |
| 2026-05-06 20:27 | 53.63093 | 10.00221 | 37 ft | 7 kts | 111° |
| 2026-05-06 20:28 | 53.63109 | 10.00282 | 39 ft | 4 kts | 82° |
| 2026-05-06 20:28 | 53.63110 | 10.00311 | 40 ft | 0 kts | 89° |